sensor_id;sensor_type;location;lat;lon;timestamp;P1;durP1;ratioP1;P2;durP2;ratioP2
2888;SDS011;1453;42.708;23.282;2022-10-31T00:02:24;11.00;;;6.93;;
2888;SDS011;1453;42.708;23.282;2022-10-31T00:04:49;9.80;;;5.70;;
2888;SDS011;1453;42.708;23.282;2022-10-31T00:07:15;10.23;;;5.83;;
2888;SDS011;1453;42.708;23.282;2022-10-31T00:09:41;9.70;;;6.60;;
2888;SDS011;1453;42.708;23.282;2022-10-31T00:12:07;7.37;;;5.63;;
2888;SDS011;1453;42.708;23.282;2022-10-31T00:14:32;8.70;;;5.20;;
2888;SDS011;1453;42.708;23.282;2022-10-31T00:16:58;7.43;;;5.73;;
2888;SDS011;1453;42.708;23.282;2022-10-31T00:19:25;8.57;;;5.20;;
2888;SDS011;1453;42.708;23.282;2022-10-31T00:21:51;9.83;;;6.37;;
2888;SDS011;1453;42.708;23.282;2022-10-31T00:24:17;7.50;;;5.10;;
2888;SDS011;1453;42.708;23.282;2022-10-31T00:26:44;9.13;;;5.83;;
2888;SDS011;1453;42.708;23.282;2022-10-31T00:29:09;10.13;;;6.90;;
2888;SDS011;1453;42.708;23.282;2022-10-31T00:31:35;8.97;;;5.50;;
2888;SDS011;1453;42.708;23.282;2022-10-31T00:34:01;7.37;;;5.67;;
2888;SDS011;1453;42.708;23.282;2022-10-31T00:36:28;8.50;;;6.00;;
2888;SDS011;1453;42.708;23.282;2022-10-31T00:38:54;8.57;;;6.10;;
2888;SDS011;1453;42.708;23.282;2022-10-31T00:41:20;11.70;;;5.90;;
2888;SDS011;1453;42.708;23.282;2022-10-31T00:43:46;7.73;;;5.60;;
2888;SDS011;1453;42.708;23.282;2022-10-31T00:46:12;11.07;;;5.70;;
2888;SDS011;1453;42.708;23.282;2022-10-31T00:48:38;7.10;;;5.40;;
2888;SDS011;1453;42.708;23.282;2022-10-31T00:51:04;7.43;;;5.20;;
2888;SDS011;1453;42.708;23.282;2022-10-31T00:53:30;10.83;;;6.33;;
2888;SDS011;1453;42.708;23.282;2022-10-31T00:55:56;10.20;;;5.60;;
2888;SDS011;1453;42.708;23.282;2022-10-31T00:58:22;6.60;;;5.47;;
2888;SDS011;1453;42.708;23.282;2022-10-31T01:00:49;12.10;;;6.37;;
2888;SDS011;1453;42.708;23.282;2022-10-31T01:03:22;11.20;;;6.20;;
2888;SDS011;1453;42.708;23.282;2022-10-31T01:05:56;7.30;;;5.87;;
2888;SDS011;1453;42.708;23.282;2022-10-31T01:08:31;8.50;;;5.50;;
2888;SDS011;1453;42.708;23.282;2022-10-31T01:11:02;7.57;;;5.43;;
2888;SDS011;1453;42.708;23.282;2022-10-31T01:13:33;10.13;;;5.20;;
2888;SDS011;1453;42.708;23.282;2022-10-31T01:16:00;7.27;;;5.10;;
2888;SDS011;1453;42.708;23.282;2022-10-31T01:18:27;7.87;;;5.10;;
2888;SDS011;1453;42.708;23.282;2022-10-31T01:21:13;8.13;;;5.27;;
2888;SDS011;1453;42.708;23.282;2022-10-31T01:23:47;7.17;;;4.90;;
2888;SDS011;1453;42.708;23.282;2022-10-31T01:26:18;8.77;;;5.20;;
2888;SDS011;1453;42.708;23.282;2022-10-31T01:28:48;10.47;;;5.33;;
2888;SDS011;1453;42.708;23.282;2022-10-31T01:31:18;7.67;;;5.60;;
2888;SDS011;1453;42.708;23.282;2022-10-31T01:33:47;7.63;;;5.40;;
2888;SDS011;1453;42.708;23.282;2022-10-31T01:36:15;16.07;;;7.80;;
2888;SDS011;1453;42.708;23.282;2022-10-31T01:38:46;7.60;;;5.77;;
2888;SDS011;1453;42.708;23.282;2022-10-31T01:41:16;10.10;;;6.20;;
2888;SDS011;1453;42.708;23.282;2022-10-31T01:43:58;10.43;;;6.57;;
2888;SDS011;1453;42.708;23.282;2022-10-31T01:46:31;9.60;;;5.57;;
2888;SDS011;1453;42.708;23.282;2022-10-31T01:49:03;9.10;;;7.03;;
2888;SDS011;1453;42.708;23.282;2022-10-31T01:51:36;8.37;;;5.70;;
2888;SDS011;1453;42.708;23.282;2022-10-31T01:54:08;11.23;;;7.40;;
2888;SDS011;1453;42.708;23.282;2022-10-31T01:56:40;9.83;;;7.37;;
2888;SDS011;1453;42.708;23.282;2022-10-31T01:59:11;13.83;;;9.80;;
2888;SDS011;1453;42.708;23.282;2022-10-31T02:01:42;9.50;;;6.70;;
2888;SDS011;1453;42.708;23.282;2022-10-31T02:04:08;8.90;;;6.57;;
2888;SDS011;1453;42.708;23.282;2022-10-31T02:06:38;9.10;;;6.33;;
2888;SDS011;1453;42.708;23.282;2022-10-31T02:09:17;14.10;;;8.03;;
2888;SDS011;1453;42.708;23.282;2022-10-31T02:11:49;9.20;;;6.50;;
2888;SDS011;1453;42.708;23.282;2022-10-31T02:14:18;12.23;;;6.90;;
2888;SDS011;1453;42.708;23.282;2022-10-31T02:16:46;9.03;;;7.30;;
2888;SDS011;1453;42.708;23.282;2022-10-31T02:19:13;11.50;;;6.50;;
2888;SDS011;1453;42.708;23.282;2022-10-31T02:21:56;9.73;;;8.10;;
2888;SDS011;1453;42.708;23.282;2022-10-31T02:34:19;23.70;;;16.73;;
2888;SDS011;1453;42.708;23.282;2022-10-31T02:36:57;20.93;;;13.87;;
2888;SDS011;1453;42.708;23.282;2022-10-31T02:39:40;11.53;;;7.57;;
2888;SDS011;1453;42.708;23.282;2022-10-31T02:42:29;26.37;;;17.40;;
2888;SDS011;1453;42.708;23.282;2022-10-31T02:45:07;14.43;;;9.77;;
2888;SDS011;1453;42.708;23.282;2022-10-31T02:47:43;10.53;;;8.00;;
2888;SDS011;1453;42.708;23.282;2022-10-31T02:50:24;15.60;;;11.37;;
2888;SDS011;1453;42.708;23.282;2022-10-31T02:52:55;15.80;;;10.20;;
2888;SDS011;1453;42.708;23.282;2022-10-31T02:57:50;16.47;;;10.70;;
2888;SDS011;1453;42.708;23.282;2022-10-31T03:00:22;12.13;;;8.57;;
2888;SDS011;1453;42.708;23.282;2022-10-31T03:03:11;10.83;;;7.87;;
2888;SDS011;1453;42.708;23.282;2022-10-31T03:13:27;13.30;;;8.03;;
2888;SDS011;1453;42.708;23.282;2022-10-31T03:16:36;13.73;;;8.40;;
2888;SDS011;1453;42.708;23.282;2022-10-31T03:19:57;10.90;;;8.03;;
2888;SDS011;1453;42.708;23.282;2022-10-31T03:22:09;11.63;;;8.40;;
2888;SDS011;1453;42.708;23.282;2022-10-31T03:24:42;12.83;;;9.00;;
2888;SDS011;1453;42.708;23.282;2022-10-31T03:27:09;13.83;;;8.60;;
2888;SDS011;1453;42.708;23.282;2022-10-31T03:29:38;12.43;;;8.47;;
2888;SDS011;1453;42.708;23.282;2022-10-31T03:32:17;14.57;;;9.97;;
2888;SDS011;1453;42.708;23.282;2022-10-31T03:34:49;13.37;;;10.33;;
2888;SDS011;1453;42.708;23.282;2022-10-31T03:37:19;45.57;;;32.63;;
2888;SDS011;1453;42.708;23.282;2022-10-31T03:39:47;19.27;;;13.10;;
2888;SDS011;1453;42.708;23.282;2022-10-31T03:42:15;45.40;;;32.87;;
2888;SDS011;1453;42.708;23.282;2022-10-31T03:44:51;33.33;;;23.10;;
2888;SDS011;1453;42.708;23.282;2022-10-31T03:47:23;21.50;;;16.00;;
2888;SDS011;1453;42.708;23.282;2022-10-31T03:49:49;15.90;;;12.20;;
2888;SDS011;1453;42.708;23.282;2022-10-31T03:52:21;16.10;;;12.47;;
2888;SDS011;1453;42.708;23.282;2022-10-31T03:55:17;19.73;;;12.53;;
2888;SDS011;1453;42.708;23.282;2022-10-31T04:00:27;58.90;;;43.33;;
2888;SDS011;1453;42.708;23.282;2022-10-31T04:03:03;30.07;;;18.83;;
2888;SDS011;1453;42.708;23.282;2022-10-31T04:05:49;49.47;;;32.63;;
2888;SDS011;1453;42.708;23.282;2022-10-31T04:08:20;32.90;;;21.03;;
2888;SDS011;1453;42.708;23.282;2022-10-31T04:10:52;21.10;;;15.80;;
2888;SDS011;1453;42.708;23.282;2022-10-31T04:13:22;16.03;;;11.13;;
2888;SDS011;1453;42.708;23.282;2022-10-31T04:15:55;18.63;;;11.03;;
2888;SDS011;1453;42.708;23.282;2022-10-31T04:18:24;15.60;;;11.40;;
2888;SDS011;1453;42.708;23.282;2022-10-31T04:20:59;24.13;;;13.43;;
2888;SDS011;1453;42.708;23.282;2022-10-31T04:23:32;16.43;;;10.00;;
2888;SDS011;1453;42.708;23.282;2022-10-31T04:26:00;14.20;;;11.00;;
2888;SDS011;1453;42.708;23.282;2022-10-31T04:28:26;15.43;;;11.13;;
2888;SDS011;1453;42.708;23.282;2022-10-31T04:30:52;31.93;;;18.80;;
2888;SDS011;1453;42.708;23.282;2022-10-31T04:33:18;17.17;;;11.20;;
2888;SDS011;1453;42.708;23.282;2022-10-31T04:35:44;14.60;;;10.43;;
2888;SDS011;1453;42.708;23.282;2022-10-31T04:38:10;16.53;;;11.50;;
2888;SDS011;1453;42.708;23.282;2022-10-31T04:40:36;14.60;;;10.37;;
2888;SDS011;1453;42.708;23.282;2022-10-31T04:43:02;17.93;;;12.07;;
2888;SDS011;1453;42.708;23.282;2022-10-31T04:45:27;17.00;;;11.50;;
2888;SDS011;1453;42.708;23.282;2022-10-31T04:47:53;20.53;;;14.13;;
2888;SDS011;1453;42.708;23.282;2022-10-31T04:50:19;15.13;;;12.00;;
2888;SDS011;1453;42.708;23.282;2022-10-31T04:52:45;18.50;;;12.60;;
2888;SDS011;1453;42.708;23.282;2022-10-31T04:55:12;17.13;;;12.13;;
2888;SDS011;1453;42.708;23.282;2022-10-31T05:00:10;18.50;;;12.37;;
2888;SDS011;1453;42.708;23.282;2022-10-31T05:02:51;14.10;;;12.50;;
2888;SDS011;1453;42.708;23.282;2022-10-31T05:05:19;14.93;;;11.40;;
2888;SDS011;1453;42.708;23.282;2022-10-31T05:07:49;16.93;;;11.87;;
2888;SDS011;1453;42.708;23.282;2022-10-31T05:10:16;20.30;;;12.40;;
2888;SDS011;1453;42.708;23.282;2022-10-31T05:12:46;28.03;;;12.00;;
2888;SDS011;1453;42.708;23.282;2022-10-31T05:15:17;17.40;;;11.50;;
2888;SDS011;1453;42.708;23.282;2022-10-31T05:17:45;21.77;;;12.70;;
2888;SDS011;1453;42.708;23.282;2022-10-31T05:20:12;16.60;;;12.67;;
2888;SDS011;1453;42.708;23.282;2022-10-31T05:22:46;19.93;;;12.80;;
2888;SDS011;1453;42.708;23.282;2022-10-31T05:25:15;25.73;;;14.10;;
2888;SDS011;1453;42.708;23.282;2022-10-31T05:27:43;23.10;;;13.93;;
2888;SDS011;1453;42.708;23.282;2022-10-31T05:30:11;23.97;;;14.63;;
2888;SDS011;1453;42.708;23.282;2022-10-31T05:32:41;23.13;;;12.50;;
2888;SDS011;1453;42.708;23.282;2022-10-31T05:35:15;24.13;;;13.57;;
2888;SDS011;1453;42.708;23.282;2022-10-31T05:37:44;21.77;;;12.83;;
2888;SDS011;1453;42.708;23.282;2022-10-31T05:40:11;24.80;;;14.67;;
2888;SDS011;1453;42.708;23.282;2022-10-31T05:42:39;24.70;;;15.53;;
2888;SDS011;1453;42.708;23.282;2022-10-31T05:45:10;29.10;;;15.40;;
2888;SDS011;1453;42.708;23.282;2022-10-31T05:47:38;21.47;;;15.33;;
2888;SDS011;1453;42.708;23.282;2022-10-31T05:50:04;25.37;;;14.97;;
2888;SDS011;1453;42.708;23.282;2022-10-31T05:52:31;21.40;;;14.37;;
2888;SDS011;1453;42.708;23.282;2022-10-31T05:54:57;21.07;;;15.73;;
2888;SDS011;1453;42.708;23.282;2022-10-31T05:57:23;25.50;;;16.10;;
2888;SDS011;1453;42.708;23.282;2022-10-31T05:59:49;24.50;;;15.50;;
2888;SDS011;1453;42.708;23.282;2022-10-31T06:02:18;21.60;;;14.63;;
2888;SDS011;1453;42.708;23.282;2022-10-31T06:04:44;19.77;;;12.97;;
2888;SDS011;1453;42.708;23.282;2022-10-31T06:07:10;18.37;;;13.80;;
2888;SDS011;1453;42.708;23.282;2022-10-31T06:09:36;19.83;;;15.33;;
2888;SDS011;1453;42.708;23.282;2022-10-31T06:12:02;23.77;;;16.00;;
2888;SDS011;1453;42.708;23.282;2022-10-31T06:14:28;19.63;;;14.03;;
2888;SDS011;1453;42.708;23.282;2022-10-31T06:16:54;20.17;;;15.27;;
2888;SDS011;1453;42.708;23.282;2022-10-31T06:19:20;19.60;;;14.53;;
2888;SDS011;1453;42.708;23.282;2022-10-31T06:21:46;17.20;;;13.87;;
2888;SDS011;1453;42.708;23.282;2022-10-31T06:24:12;17.93;;;12.80;;
2888;SDS011;1453;42.708;23.282;2022-10-31T06:26:38;17.27;;;12.40;;
2888;SDS011;1453;42.708;23.282;2022-10-31T06:29:04;22.30;;;13.77;;
2888;SDS011;1453;42.708;23.282;2022-10-31T06:31:29;17.40;;;13.50;;
2888;SDS011;1453;42.708;23.282;2022-10-31T06:33:55;17.33;;;13.40;;
2888;SDS011;1453;42.708;23.282;2022-10-31T06:36:21;19.70;;;15.30;;
2888;SDS011;1453;42.708;23.282;2022-10-31T06:38:47;15.33;;;12.23;;
2888;SDS011;1453;42.708;23.282;2022-10-31T06:41:13;19.20;;;13.83;;
2888;SDS011;1453;42.708;23.282;2022-10-31T06:43:38;20.70;;;14.33;;
2888;SDS011;1453;42.708;23.282;2022-10-31T06:46:04;19.93;;;14.00;;
2888;SDS011;1453;42.708;23.282;2022-10-31T06:48:31;15.40;;;12.43;;
2888;SDS011;1453;42.708;23.282;2022-10-31T06:51:00;24.27;;;15.20;;
2888;SDS011;1453;42.708;23.282;2022-10-31T06:53:27;20.87;;;15.43;;
2888;SDS011;1453;42.708;23.282;2022-10-31T06:55:55;16.87;;;13.63;;
2888;SDS011;1453;42.708;23.282;2022-10-31T06:58:22;16.53;;;13.97;;
2888;SDS011;1453;42.708;23.282;2022-10-31T07:00:48;18.60;;;14.10;;
2888;SDS011;1453;42.708;23.282;2022-10-31T07:03:14;20.30;;;14.33;;
2888;SDS011;1453;42.708;23.282;2022-10-31T07:05:41;16.90;;;14.50;;
2888;SDS011;1453;42.708;23.282;2022-10-31T07:08:08;17.00;;;14.70;;
2888;SDS011;1453;42.708;23.282;2022-10-31T07:10:37;20.87;;;14.37;;
2888;SDS011;1453;42.708;23.282;2022-10-31T07:13:05;18.80;;;15.07;;
2888;SDS011;1453;42.708;23.282;2022-10-31T07:15:37;19.10;;;14.87;;
2888;SDS011;1453;42.708;23.282;2022-10-31T07:18:04;19.57;;;14.37;;
2888;SDS011;1453;42.708;23.282;2022-10-31T07:20:33;22.70;;;14.33;;
2888;SDS011;1453;42.708;23.282;2022-10-31T07:22:59;18.40;;;15.27;;
2888;SDS011;1453;42.708;23.282;2022-10-31T07:25:25;18.63;;;15.37;;
2888;SDS011;1453;42.708;23.282;2022-10-31T07:27:52;21.47;;;16.17;;
2888;SDS011;1453;42.708;23.282;2022-10-31T07:30:17;22.77;;;14.83;;
2888;SDS011;1453;42.708;23.282;2022-10-31T07:32:47;19.43;;;14.90;;
2888;SDS011;1453;42.708;23.282;2022-10-31T07:35:16;23.37;;;17.13;;
2888;SDS011;1453;42.708;23.282;2022-10-31T07:37:44;19.87;;;16.80;;
2888;SDS011;1453;42.708;23.282;2022-10-31T07:40:10;24.07;;;17.03;;
2888;SDS011;1453;42.708;23.282;2022-10-31T07:42:43;19.73;;;16.00;;
2888;SDS011;1453;42.708;23.282;2022-10-31T07:45:11;24.27;;;16.80;;
2888;SDS011;1453;42.708;23.282;2022-10-31T07:47:40;20.90;;;17.70;;
2888;SDS011;1453;42.708;23.282;2022-10-31T07:50:08;19.43;;;17.50;;
2888;SDS011;1453;42.708;23.282;2022-10-31T07:52:39;21.03;;;17.77;;
2888;SDS011;1453;42.708;23.282;2022-10-31T07:55:05;21.47;;;17.70;;
2888;SDS011;1453;42.708;23.282;2022-10-31T07:57:32;26.40;;;18.80;;
2888;SDS011;1453;42.708;23.282;2022-10-31T07:59:58;24.23;;;19.40;;
2888;SDS011;1453;42.708;23.282;2022-10-31T08:02:24;27.77;;;19.57;;
2888;SDS011;1453;42.708;23.282;2022-10-31T08:04:51;22.40;;;18.60;;
2888;SDS011;1453;42.708;23.282;2022-10-31T08:07:17;23.93;;;20.23;;
2888;SDS011;1453;42.708;23.282;2022-10-31T08:09:43;23.60;;;16.83;;
2888;SDS011;1453;42.708;23.282;2022-10-31T08:12:09;19.70;;;17.60;;
2888;SDS011;1453;42.708;23.282;2022-10-31T08:14:35;21.70;;;17.00;;
2888;SDS011;1453;42.708;23.282;2022-10-31T08:17:00;21.03;;;17.50;;
2888;SDS011;1453;42.708;23.282;2022-10-31T08:19:26;24.03;;;17.17;;
2888;SDS011;1453;42.708;23.282;2022-10-31T08:21:52;21.40;;;16.73;;
2888;SDS011;1453;42.708;23.282;2022-10-31T08:24:20;21.03;;;17.00;;
2888;SDS011;1453;42.708;23.282;2022-10-31T08:26:46;21.03;;;17.67;;
2888;SDS011;1453;42.708;23.282;2022-10-31T08:29:12;20.33;;;17.33;;
2888;SDS011;1453;42.708;23.282;2022-10-31T08:31:39;21.00;;;16.63;;
2888;SDS011;1453;42.708;23.282;2022-10-31T08:34:06;19.00;;;16.03;;
2888;SDS011;1453;42.708;23.282;2022-10-31T08:36:32;22.10;;;15.87;;
2888;SDS011;1453;42.708;23.282;2022-10-31T08:38:58;18.03;;;14.80;;
2888;SDS011;1453;42.708;23.282;2022-10-31T08:41:24;17.20;;;14.63;;
2888;SDS011;1453;42.708;23.282;2022-10-31T08:43:50;19.23;;;15.30;;
2888;SDS011;1453;42.708;23.282;2022-10-31T08:46:16;17.03;;;15.23;;
2888;SDS011;1453;42.708;23.282;2022-10-31T08:48:42;19.50;;;15.50;;
2888;SDS011;1453;42.708;23.282;2022-10-31T08:51:08;20.40;;;16.67;;
2888;SDS011;1453;42.708;23.282;2022-10-31T08:53:35;20.63;;;15.20;;
2888;SDS011;1453;42.708;23.282;2022-10-31T08:56:01;16.03;;;14.40;;
2888;SDS011;1453;42.708;23.282;2022-10-31T08:58:27;15.53;;;14.00;;
2888;SDS011;1453;42.708;23.282;2022-10-31T09:00:53;18.77;;;15.20;;
2888;SDS011;1453;42.708;23.282;2022-10-31T09:03:25;17.40;;;15.00;;
2888;SDS011;1453;42.708;23.282;2022-10-31T09:05:55;16.90;;;15.10;;
2888;SDS011;1453;42.708;23.282;2022-10-31T09:08:25;15.83;;;14.00;;
2888;SDS011;1453;42.708;23.282;2022-10-31T09:10:55;16.20;;;14.50;;
2888;SDS011;1453;42.708;23.282;2022-10-31T09:13:22;21.63;;;16.70;;
2888;SDS011;1453;42.708;23.282;2022-10-31T09:15:48;15.70;;;14.00;;
2888;SDS011;1453;42.708;23.282;2022-10-31T09:18:16;19.17;;;14.80;;
2888;SDS011;1453;42.708;23.282;2022-10-31T09:20:45;16.90;;;14.80;;
2888;SDS011;1453;42.708;23.282;2022-10-31T09:23:13;14.73;;;13.13;;
2888;SDS011;1453;42.708;23.282;2022-10-31T09:25:47;18.60;;;14.80;;
2888;SDS011;1453;42.708;23.282;2022-10-31T09:28:15;17.90;;;13.57;;
2888;SDS011;1453;42.708;23.282;2022-10-31T09:30:46;15.33;;;13.60;;
2888;SDS011;1453;42.708;23.282;2022-10-31T09:33:14;19.93;;;12.20;;
2888;SDS011;1453;42.708;23.282;2022-10-31T09:35:40;16.10;;;12.97;;
2888;SDS011;1453;42.708;23.282;2022-10-31T09:38:14;15.40;;;13.73;;
2888;SDS011;1453;42.708;23.282;2022-10-31T09:44:02;14.63;;;11.60;;
2888;SDS011;1453;42.708;23.282;2022-10-31T09:46:56;19.40;;;11.17;;
2888;SDS011;1453;42.708;23.282;2022-10-31T09:52:20;13.60;;;11.20;;
2888;SDS011;1453;42.708;23.282;2022-10-31T09:57:43;11.87;;;10.67;;
2888;SDS011;1453;42.708;23.282;2022-10-31T10:00:17;12.73;;;10.30;;
2888;SDS011;1453;42.708;23.282;2022-10-31T10:02:48;13.47;;;10.57;;
2888;SDS011;1453;42.708;23.282;2022-10-31T10:08:20;11.37;;;8.70;;
2888;SDS011;1453;42.708;23.282;2022-10-31T10:10:55;9.63;;;8.53;;
2888;SDS011;1453;42.708;23.282;2022-10-31T10:27:58;9.20;;;7.90;;
2888;SDS011;1453;42.708;23.282;2022-10-31T10:30:50;11.03;;;7.70;;
2888;SDS011;1453;42.708;23.282;2022-10-31T10:33:22;11.53;;;6.73;;
2888;SDS011;1453;42.708;23.282;2022-10-31T10:35:57;10.67;;;7.67;;
2888;SDS011;1453;42.708;23.282;2022-10-31T10:38:27;11.37;;;7.80;;
2888;SDS011;1453;42.708;23.282;2022-10-31T10:41:04;11.80;;;8.07;;
2888;SDS011;1453;42.708;23.282;2022-10-31T10:43:38;9.83;;;7.70;;
2888;SDS011;1453;42.708;23.282;2022-10-31T10:52:37;8.83;;;6.20;;
2888;SDS011;1453;42.708;23.282;2022-10-31T10:58:06;8.27;;;6.70;;
2888;SDS011;1453;42.708;23.282;2022-10-31T11:00:34;14.07;;;8.23;;
2888;SDS011;1453;42.708;23.282;2022-10-31T11:03:07;8.30;;;6.43;;
2888;SDS011;1453;42.708;23.282;2022-10-31T11:05:48;8.97;;;6.63;;
2888;SDS011;1453;42.708;23.282;2022-10-31T11:11:08;9.23;;;6.53;;
2888;SDS011;1453;42.708;23.282;2022-10-31T11:13:42;11.33;;;6.77;;
2888;SDS011;1453;42.708;23.282;2022-10-31T11:16:15;11.30;;;6.50;;
2888;SDS011;1453;42.708;23.282;2022-10-31T11:21:37;8.43;;;7.60;;
2888;SDS011;1453;42.708;23.282;2022-10-31T11:24:04;10.30;;;6.57;;
2888;SDS011;1453;42.708;23.282;2022-10-31T11:26:42;7.70;;;5.60;;
2888;SDS011;1453;42.708;23.282;2022-10-31T11:29:20;15.30;;;8.90;;
2888;SDS011;1453;42.708;23.282;2022-10-31T11:31:47;8.20;;;5.70;;
2888;SDS011;1453;42.708;23.282;2022-10-31T11:34:22;7.70;;;6.60;;
2888;SDS011;1453;42.708;23.282;2022-10-31T11:36:56;10.17;;;7.10;;
2888;SDS011;1453;42.708;23.282;2022-10-31T11:39:49;9.40;;;7.00;;
2888;SDS011;1453;42.708;23.282;2022-10-31T11:42:21;10.10;;;6.87;;
2888;SDS011;1453;42.708;23.282;2022-10-31T11:44:51;9.70;;;6.60;;
2888;SDS011;1453;42.708;23.282;2022-10-31T11:47:26;11.13;;;7.80;;
2888;SDS011;1453;42.708;23.282;2022-10-31T11:49:54;14.70;;;11.33;;
2888;SDS011;1453;42.708;23.282;2022-10-31T11:52:23;20.80;;;16.07;;
2888;SDS011;1453;42.708;23.282;2022-10-31T11:58:04;12.13;;;7.37;;
2888;SDS011;1453;42.708;23.282;2022-10-31T12:00:48;8.47;;;7.20;;
2888;SDS011;1453;42.708;23.282;2022-10-31T12:03:27;9.10;;;6.50;;
2888;SDS011;1453;42.708;23.282;2022-10-31T12:06:24;7.13;;;6.27;;
2888;SDS011;1453;42.708;23.282;2022-10-31T12:09:02;10.37;;;8.07;;
2888;SDS011;1453;42.708;23.282;2022-10-31T12:11:52;11.77;;;6.57;;
2888;SDS011;1453;42.708;23.282;2022-10-31T12:17:22;10.33;;;6.67;;
2888;SDS011;1453;42.708;23.282;2022-10-31T12:29:33;13.80;;;7.20;;
2888;SDS011;1453;42.708;23.282;2022-10-31T12:41:35;13.30;;;8.83;;
2888;SDS011;1453;42.708;23.282;2022-10-31T12:52:16;10.63;;;7.17;;
2888;SDS011;1453;42.708;23.282;2022-10-31T12:58:08;8.80;;;6.93;;
2888;SDS011;1453;42.708;23.282;2022-10-31T13:01:38;10.17;;;6.60;;
2888;SDS011;1453;42.708;23.282;2022-10-31T13:04:18;11.53;;;6.43;;
2888;SDS011;1453;42.708;23.282;2022-10-31T13:07:19;10.53;;;5.87;;
2888;SDS011;1453;42.708;23.282;2022-10-31T13:09:56;13.70;;;7.80;;
2888;SDS011;1453;42.708;23.282;2022-10-31T13:12:29;7.73;;;5.67;;
2888;SDS011;1453;42.708;23.282;2022-10-31T13:14:58;13.13;;;6.77;;
2888;SDS011;1453;42.708;23.282;2022-10-31T13:17:35;13.73;;;6.80;;
2888;SDS011;1453;42.708;23.282;2022-10-31T13:20:15;11.50;;;7.10;;
2888;SDS011;1453;42.708;23.282;2022-10-31T13:22:48;8.37;;;6.33;;
2888;SDS011;1453;42.708;23.282;2022-10-31T13:25:23;9.77;;;7.17;;
2888;SDS011;1453;42.708;23.282;2022-10-31T13:28:00;9.80;;;6.67;;
2888;SDS011;1453;42.708;23.282;2022-10-31T13:31:08;11.47;;;6.00;;
2888;SDS011;1453;42.708;23.282;2022-10-31T13:44:24;10.63;;;6.47;;
2888;SDS011;1453;42.708;23.282;2022-10-31T13:46:53;10.17;;;5.57;;
2888;SDS011;1453;42.708;23.282;2022-10-31T13:52:04;8.30;;;5.43;;
2888;SDS011;1453;42.708;23.282;2022-10-31T13:54:47;9.70;;;5.23;;
2888;SDS011;1453;42.708;23.282;2022-10-31T14:00:01;12.53;;;5.17;;
2888;SDS011;1453;42.708;23.282;2022-10-31T14:02:33;9.20;;;4.53;;
2888;SDS011;1453;42.708;23.282;2022-10-31T14:07:30;12.10;;;4.70;;
2888;SDS011;1453;42.708;23.282;2022-10-31T14:12:45;13.80;;;4.47;;
2888;SDS011;1453;42.708;23.282;2022-10-31T14:17:54;11.13;;;4.00;;
2888;SDS011;1453;42.708;23.282;2022-10-31T14:20:37;9.97;;;4.00;;
2888;SDS011;1453;42.708;23.282;2022-10-31T14:26:50;6.77;;;4.17;;
2888;SDS011;1453;42.708;23.282;2022-10-31T14:29:39;7.57;;;4.93;;
2888;SDS011;1453;42.708;23.282;2022-10-31T14:31:53;11.60;;;5.43;;
2888;SDS011;1453;42.708;23.282;2022-10-31T14:40:33;8.33;;;6.60;;
2888;SDS011;1453;42.708;23.282;2022-10-31T14:52:24;15.30;;;8.93;;
2888;SDS011;1453;42.708;23.282;2022-10-31T14:54:51;10.63;;;6.67;;
2888;SDS011;1453;42.708;23.282;2022-10-31T14:59:50;13.23;;;7.23;;
2888;SDS011;1453;42.708;23.282;2022-10-31T15:02:26;14.17;;;7.60;;
2888;SDS011;1453;42.708;23.282;2022-10-31T15:05:01;18.60;;;9.10;;
2888;SDS011;1453;42.708;23.282;2022-10-31T15:07:35;12.00;;;7.60;;
2888;SDS011;1453;42.708;23.282;2022-10-31T15:10:26;13.40;;;9.40;;
2888;SDS011;1453;42.708;23.282;2022-10-31T15:12:54;12.07;;;7.87;;
2888;SDS011;1453;42.708;23.282;2022-10-31T15:15:22;26.87;;;14.60;;
2888;SDS011;1453;42.708;23.282;2022-10-31T15:17:54;16.53;;;7.53;;
2888;SDS011;1453;42.708;23.282;2022-10-31T15:20:25;17.17;;;8.67;;
2888;SDS011;1453;42.708;23.282;2022-10-31T15:22:55;17.57;;;8.53;;
2888;SDS011;1453;42.708;23.282;2022-10-31T15:25:24;31.57;;;20.07;;
2888;SDS011;1453;42.708;23.282;2022-10-31T15:27:53;21.87;;;14.00;;
2888;SDS011;1453;42.708;23.282;2022-10-31T15:30:20;19.37;;;14.30;;
2888;SDS011;1453;42.708;23.282;2022-10-31T15:32:49;21.73;;;12.03;;
2888;SDS011;1453;42.708;23.282;2022-10-31T15:35:23;19.07;;;7.00;;
2888;SDS011;1453;42.708;23.282;2022-10-31T15:37:52;15.20;;;8.33;;
2888;SDS011;1453;42.708;23.282;2022-10-31T15:40:19;11.50;;;6.97;;
2888;SDS011;1453;42.708;23.282;2022-10-31T15:42:51;27.80;;;12.10;;
2888;SDS011;1453;42.708;23.282;2022-10-31T15:45:29;13.83;;;6.63;;
2888;SDS011;1453;42.708;23.282;2022-10-31T15:48:00;28.27;;;22.57;;
2888;SDS011;1453;42.708;23.282;2022-10-31T15:50:31;20.60;;;10.67;;
2888;SDS011;1453;42.708;23.282;2022-10-31T15:53:01;16.67;;;7.57;;
2888;SDS011;1453;42.708;23.282;2022-10-31T15:55:29;17.70;;;9.60;;
2888;SDS011;1453;42.708;23.282;2022-10-31T15:57:59;28.50;;;10.67;;
2888;SDS011;1453;42.708;23.282;2022-10-31T16:00:36;16.17;;;8.30;;
2888;SDS011;1453;42.708;23.282;2022-10-31T16:03:09;15.33;;;7.00;;
2888;SDS011;1453;42.708;23.282;2022-10-31T16:05:43;17.53;;;7.43;;
2888;SDS011;1453;42.708;23.282;2022-10-31T16:08:24;19.67;;;7.57;;
2888;SDS011;1453;42.708;23.282;2022-10-31T16:10:56;25.33;;;9.70;;
2888;SDS011;1453;42.708;23.282;2022-10-31T16:13:30;32.03;;;8.90;;
2888;SDS011;1453;42.708;23.282;2022-10-31T16:16:02;12.80;;;7.23;;
2888;SDS011;1453;42.708;23.282;2022-10-31T16:18:40;15.87;;;8.03;;
2888;SDS011;1453;42.708;23.282;2022-10-31T16:21:07;22.20;;;9.40;;
2888;SDS011;1453;42.708;23.282;2022-10-31T16:23:33;23.53;;;13.90;;
2888;SDS011;1453;42.708;23.282;2022-10-31T16:26:05;29.13;;;11.50;;
2888;SDS011;1453;42.708;23.282;2022-10-31T16:28:32;23.73;;;11.53;;
2888;SDS011;1453;42.708;23.282;2022-10-31T16:30:59;29.67;;;14.77;;
2888;SDS011;1453;42.708;23.282;2022-10-31T16:35:56;52.60;;;31.30;;
2888;SDS011;1453;42.708;23.282;2022-10-31T16:38:23;33.47;;;17.20;;
2888;SDS011;1453;42.708;23.282;2022-10-31T16:40:49;43.10;;;22.30;;
2888;SDS011;1453;42.708;23.282;2022-10-31T16:43:17;23.20;;;12.80;;
2888;SDS011;1453;42.708;23.282;2022-10-31T16:45:48;33.80;;;13.93;;
2888;SDS011;1453;42.708;23.282;2022-10-31T16:48:20;20.67;;;9.90;;
2888;SDS011;1453;42.708;23.282;2022-10-31T16:50:48;21.87;;;11.67;;
2888;SDS011;1453;42.708;23.282;2022-10-31T16:53:15;36.33;;;15.37;;
2888;SDS011;1453;42.708;23.282;2022-10-31T16:55:46;25.50;;;14.53;;
2888;SDS011;1453;42.708;23.282;2022-10-31T16:58:21;20.60;;;10.80;;
2888;SDS011;1453;42.708;23.282;2022-10-31T17:00:53;14.93;;;9.47;;
2888;SDS011;1453;42.708;23.282;2022-10-31T17:03:19;17.63;;;10.43;;
2888;SDS011;1453;42.708;23.282;2022-10-31T17:05:45;15.37;;;9.20;;
2888;SDS011;1453;42.708;23.282;2022-10-31T17:08:11;20.57;;;10.47;;
2888;SDS011;1453;42.708;23.282;2022-10-31T17:10:37;14.77;;;11.03;;
2888;SDS011;1453;42.708;23.282;2022-10-31T17:13:06;17.60;;;10.70;;
2888;SDS011;1453;42.708;23.282;2022-10-31T17:15:41;22.33;;;10.60;;
2888;SDS011;1453;42.708;23.282;2022-10-31T17:18:15;19.60;;;10.17;;
2888;SDS011;1453;42.708;23.282;2022-10-31T17:20:42;17.30;;;8.50;;
2888;SDS011;1453;42.708;23.282;2022-10-31T17:23:09;21.97;;;8.10;;
2888;SDS011;1453;42.708;23.282;2022-10-31T17:25:37;18.40;;;8.90;;
2888;SDS011;1453;42.708;23.282;2022-10-31T17:28:03;20.97;;;10.47;;
2888;SDS011;1453;42.708;23.282;2022-10-31T17:30:30;17.30;;;9.60;;
2888;SDS011;1453;42.708;23.282;2022-10-31T17:32:57;16.37;;;8.97;;
2888;SDS011;1453;42.708;23.282;2022-10-31T17:35:23;18.10;;;10.40;;
2888;SDS011;1453;42.708;23.282;2022-10-31T17:37:49;22.23;;;9.30;;